Monday, October 20, 2014
22:52 UTC
  |  Log In   |  Register Free
Airport Search:

Seattle-Tacoma International Airport
(KSEA)

FAA data valid effective September 18, 2014 - November 13, 2014 (unless otherwise noted).

 
 
 
 
 
 
 
 
 
 
 
 
 
 

Current Aviation Weather for Seattle-Tacoma International Airport (KSEA)

The most recent METAR observation for KSEA was updated at: 2215
METAR Summary (Translated METAR)
KSEA
202153Z 17007KT 10SM FEW020 SCT065 BKN080 BKN200 16/13 A2977 RMK AO2 RAE2054 SLP085 T01610128
KRNT
202153Z 17003KT 6SM BR SCT075 16/14 A2975 RMK AO2 RAE02 SLP080 P0001 T01560139
(4.6 nm NE from KSEA)
KBFI
202153Z 16008KT 10SM FEW015 SCT060 BKN100 18/13 A2975 RMK AO2 SLP075 VIRGA SE T01780128
(4.9 nm NE from KSEA)
TAF Summary (Translated TAF)
KSEA
202102Z 2021/2124 21005KT P6SM VCSH SCT035 BKN050 FM202300 21009KT P6SM VCSH BKN035 OVC050 TEMPO 2023/2103 -SHRA BKN030 FM210300 19006KT P6SM VCSH OVC035 FM210600 18007KT P6SM OVC030
KBFI
(4.9 nm NE from KSEA)
201727Z 2018/2118 18006KT P6SM SCT035 BKN060 FM202000 18006KT P6SM -SHRA SCT035 BKN050 FM210300 15004KT P6SM VCSH SCT035 BKN050 FM210600 VRB03KT P6SM OVC035
  Airport Weather Conditions for KSEA

 Current Weather at SEA
61° F
Mostly Cloudy
South winds at 8.1 mph
SEA NOAA Radar

Pressure: 29.77 in
Humidity: 81%
Wind: South at 8.1 MPH (7 KT)
Dew Point: 55.0°F
Visibility: 10.00 mi


Airport Weather Forecast for KSEA

Translated METAR and TAF for KSEA
Translated METAR for KSEA (2247 UTC 20 October 2014)
found at http://aviationweather.gov/adds/metars/
 
METAR text: KSEA 202153Z 17007KT 10SM FEW020 SCT065 BKN080 BKN200 16/13 A2977 RMK AO2 RAE2054 SLP085 T01610128
Conditions at: KSEA (SEATTLE/METRO , WA, US) observed 2153 UTC 20 October 2014
Temperature: 16.1°C (61°F)
Dewpoint: 12.8°C (55°F) [RH = 81%]
Pressure (altimeter): 29.77 inches Hg (1008.2 mb)
[Sea-level pressure: 1008.5 mb]
Winds: from the S (170 degrees) at 8 MPH (7 knots; 3.6 m/s)
Visibility: 10 or more miles (16+ km)
Ceiling: 8000 feet AGL
Clouds: few clouds at 2000 feet AGL
scattered clouds at 6500 feet AGL
broken clouds at 8000 feet AGL
broken clouds at 20000 feet AGL
Weather: no significant weather observed at this time
Translated TAF for KSEA
Forecast for: KSEA (SEATTLE/METRO , WA, US)
TAF Text: KSEA 202102Z 2021/2124 21005KT P6SM VCSH SCT035 BKN050
Forecast period: 2100 to 2300 UTC 20 October 2014
Forecast type: FROM: standard forecast or significant change
Winds: from the SSW (210 degrees) at 6 MPH (5 knots; 2.6 m/s)
Visibility: 6 or more miles (10+ km)
Ceiling: 5000 feet AGL
Clouds: scattered clouds at 3500 feet AGL
broken clouds at 5000 feet AGL
Weather: VCSH  (showers in vicinity)
TAF Text: FM202300 21009KT P6SM VCSH BKN035 OVC050
Forecast period: 2300 UTC 20 October 2014 to 0300 UTC 21 October 2014
Forecast type: FROM: standard forecast or significant change
Winds: from the SSW (210 degrees) at 10 MPH (9 knots; 4.7 m/s)
Visibility: 6 or more miles (10+ km)
Ceiling: 3500 feet AGL
Clouds: broken clouds at 3500 feet AGL
overcast cloud deck at 5000 feet AGL
Weather: VCSH  (showers in vicinity)
TAF Text: TEMPO 2023/2103 -SHRA BKN030
Forecast period: 2300 UTC 20 October 2014 to 0300 UTC 21 October 2014
Forecast type: TEMPORARY: The following changes expected for less than half the time period
Ceiling: 3000 feet AGL
Clouds: broken clouds at 3000 feet AGL
Weather: -SHRA  (light rain showers)
TAF Text: FM210300 19006KT P6SM VCSH OVC035
Forecast period: 0300 to 0600 UTC 21 October 2014
Forecast type: FROM: standard forecast or significant change
Winds: from the S (190 degrees) at 7 MPH (6 knots; 3.1 m/s)
Visibility: 6 or more miles (10+ km)
Ceiling: 3500 feet AGL
Clouds: overcast cloud deck at 3500 feet AGL
Weather: VCSH  (showers in vicinity)
TAF Text: FM210600 18007KT P6SM OVC030
Forecast period: 0600 UTC 21 October 2014 to 0000 UTC 22 October 2014
Forecast type: FROM: standard forecast or significant change
Winds: from the S (180 degrees) at 8 MPH (7 knots; 3.6 m/s)
Visibility: 6 or more miles (10+ km)
Ceiling: 3000 feet AGL
Clouds: overcast cloud deck at 3000 feet AGL
Weather: no significant weather forecast for this period

Find All Airport Services Find A Hotel Find A Rental Car Find A Golf Course Find A Restaurant $100 Hamburger



FBO's on the Field
FBO Company Facility Photos Services Transportation Aviation Fuel Prices: Prices include tax
Catering Weather Repair Courtesy Rental Type 100LL JetA JetA+ MOGAS 8087
 
Aircraft Service Intl.

This FBO has not yet been rated
FS:Avfuel
Last Updated: Oct-10
Login to update fuel prices
SS:
Contact Aircraft Service Intl.More FBO Information
 
Add another FBO Facility Photos Catering Weather Repair Courtesy Rental Type 100LL JetA JetA+ MOGAS 8087
Services Transportation Aviation Fuel Prices: Prices include tax


model-print
model-print
model-print
model-print